createdAt,value
2022-12-18T00:01:20.875Z,5.18
2022-12-18T00:03:48.445Z,5.24
2022-12-18T00:06:16.412Z,5.22
2022-12-18T00:08:44.593Z,5.32
2022-12-18T00:11:17.282Z,5.18
2022-12-18T00:13:44.792Z,5.09
2022-12-18T00:16:14.773Z,5.03
2022-12-18T00:18:42.678Z,5.03
2022-12-18T00:21:12.829Z,5.03
2022-12-18T00:23:43.475Z,5.12
2022-12-18T00:26:16.529Z,5.10
2022-12-18T00:28:44.703Z,5.04
2022-12-18T00:31:16.460Z,4.98
2022-12-18T00:33:46.012Z,4.89
2022-12-18T00:36:20.612Z,4.79
2022-12-18T00:38:48.863Z,4.78
2022-12-18T00:41:40.157Z,4.77
2022-12-18T00:44:08.952Z,4.73
2022-12-18T00:46:36.410Z,4.71
2022-12-18T00:49:04.364Z,4.68
2022-12-18T00:51:32.035Z,4.69
2022-12-18T00:53:59.241Z,4.63
2022-12-18T00:56:26.665Z,4.59
2022-12-18T00:58:54.375Z,4.52
2022-12-18T01:01:21.835Z,4.51
2022-12-18T01:03:49.197Z,4.53
2022-12-18T01:06:17.822Z,4.64
2022-12-18T01:08:45.762Z,4.63
2022-12-18T01:11:19.451Z,4.50
2022-12-18T01:13:46.900Z,4.38
2022-12-18T01:16:16.370Z,4.36
2022-12-18T01:18:43.731Z,4.42
2022-12-18T01:21:14.138Z,4.37
2022-12-18T01:23:41.841Z,4.23
2022-12-18T01:26:13.986Z,4.20
2022-12-18T01:28:41.292Z,4.17
2022-12-18T01:31:23.834Z,4.18
2022-12-18T01:33:55.025Z,4.13
2022-12-18T01:36:27.985Z,4.19
2022-12-18T01:38:55.620Z,4.24
2022-12-18T01:41:27.409Z,4.23
2022-12-18T01:43:58.855Z,4.25
2022-12-18T01:46:26.117Z,4.23
2022-12-18T01:49:02.321Z,4.19
2022-12-18T01:51:32.088Z,4.20
2022-12-18T01:54:01.885Z,4.24
2022-12-18T01:56:29.711Z,4.29
2022-12-18T01:59:07.146Z,4.30
2022-12-18T02:01:34.417Z,4.34
2022-12-18T02:04:26.114Z,4.32
2022-12-18T02:07:08.551Z,4.33
2022-12-18T02:09:44.606Z,4.20
2022-12-18T02:12:20.715Z,4.10
2022-12-18T02:15:05.279Z,4.11
2022-12-18T02:17:52.519Z,4.10
2022-12-18T02:20:55.970Z,4.05
2022-12-18T02:23:48.555Z,4.02
2022-12-18T02:26:45.908Z,3.96
2022-12-18T02:29:39.989Z,4.01
2022-12-18T02:32:12.053Z,4.12
2022-12-18T02:34:41.208Z,4.14
2022-12-18T02:37:17.377Z,4.15
2022-12-18T02:39:48.004Z,4.16
2022-12-18T02:42:16.297Z,4.10
2022-12-18T02:44:48.823Z,4.14
2022-12-18T02:47:23.287Z,4.17
2022-12-18T02:50:42.417Z,4.21
2022-12-18T02:53:35.107Z,4.14
2022-12-18T02:56:32.168Z,3.97
2022-12-18T02:59:09.705Z,3.97
2022-12-18T03:01:57.509Z,3.92
2022-12-18T03:04:34.910Z,3.89
2022-12-18T03:07:09.351Z,3.84
2022-12-18T03:09:41.018Z,3.81
2022-12-18T03:12:25.260Z,3.83
2022-12-18T03:15:05.987Z,3.79
2022-12-18T03:17:34.846Z,3.84
2022-12-18T03:20:12.753Z,3.85
2022-12-18T03:22:43.139Z,3.77
2022-12-18T03:25:14.529Z,3.69
2022-12-18T03:27:49.148Z,3.65
2022-12-18T03:30:18.608Z,3.67
2022-12-18T03:33:00.498Z,3.70
2022-12-18T03:35:36.105Z,3.73
2022-12-18T03:38:05.131Z,3.76
2022-12-18T03:41:05.221Z,3.83
2022-12-18T03:44:02.330Z,3.78
2022-12-18T03:46:58.725Z,3.67
2022-12-18T03:49:34.858Z,3.73
2022-12-18T03:52:31.608Z,3.69
2022-12-18T03:55:00.999Z,3.60
2022-12-18T03:57:31.667Z,3.49
2022-12-18T04:00:05.466Z,3.38
2022-12-18T04:02:46.838Z,3.31
2022-12-18T04:05:21.825Z,3.27
2022-12-18T04:07:51.287Z,3.29
2022-12-18T04:10:19.501Z,3.26
2022-12-18T04:12:47.762Z,3.36
2022-12-18T04:15:16.004Z,3.38
2022-12-18T04:17:49.849Z,3.42
2022-12-18T04:20:20.192Z,3.48
2022-12-18T04:22:48.385Z,3.49
2022-12-18T04:25:15.798Z,3.52
2022-12-18T04:27:54.822Z,3.52
2022-12-18T04:30:21.966Z,3.61
2022-12-18T04:32:52.316Z,3.55
2022-12-18T04:35:21.360Z,3.49
2022-12-18T04:37:48.849Z,3.47
2022-12-18T04:40:16.485Z,3.41
2022-12-18T04:42:46.591Z,3.30
2022-12-18T04:45:14.213Z,3.24
2022-12-18T04:47:42.455Z,3.10
2022-12-18T04:50:09.707Z,3.04
2022-12-18T04:52:36.868Z,2.99
2022-12-18T04:55:04.487Z,3.02
2022-12-18T04:57:31.602Z,2.99
2022-12-18T04:59:58.562Z,2.93
2022-12-18T05:02:25.883Z,2.95
2022-12-18T05:04:52.988Z,2.94
2022-12-18T05:07:20.504Z,2.96
2022-12-18T05:09:47.783Z,3.00
2022-12-18T05:12:14.805Z,2.90
2022-12-18T05:14:42.409Z,2.93
2022-12-18T05:17:09.411Z,2.94
2022-12-18T05:19:39.368Z,3.13
2022-12-18T05:22:09.181Z,3.17
2022-12-18T05:24:36.359Z,3.19
2022-12-18T05:27:03.604Z,3.17
2022-12-18T05:29:30.803Z,3.24
2022-12-18T05:31:57.843Z,3.33
2022-12-18T05:34:25.088Z,3.26
2022-12-18T05:36:52.078Z,3.15
2022-12-18T05:39:19.173Z,3.03
2022-12-18T05:41:46.120Z,2.95
2022-12-18T05:44:14.043Z,2.85
2022-12-18T05:46:42.786Z,2.89
2022-12-18T05:49:10.411Z,2.98
2022-12-18T05:51:37.584Z,3.01
2022-12-18T05:54:05.130Z,3.11
2022-12-18T05:56:33.043Z,3.06
2022-12-18T05:59:00.391Z,3.00
2022-12-18T06:01:28.301Z,2.93
2022-12-18T06:03:56.833Z,2.89
2022-12-18T06:06:26.507Z,2.82
2022-12-18T06:08:55.182Z,2.97
2022-12-18T06:11:25.410Z,2.99
2022-12-18T06:13:58.629Z,3.10
2022-12-18T06:16:27.628Z,3.10
2022-12-18T06:18:57.235Z,3.06
2022-12-18T06:21:24.301Z,3.08
2022-12-18T06:23:51.670Z,3.05
2022-12-18T06:26:22.089Z,3.03
2022-12-18T06:28:51.982Z,3.07
2022-12-18T06:31:19.206Z,3.15
2022-12-18T06:33:46.168Z,3.00
2022-12-18T06:36:14.195Z,3.27
2022-12-18T06:38:43.402Z,3.36
2022-12-18T06:41:12.989Z,3.23
2022-12-18T06:43:40.407Z,3.40
2022-12-18T06:46:08.073Z,3.24
2022-12-18T06:48:35.498Z,3.31
2022-12-18T06:51:03.412Z,3.25
2022-12-18T06:53:30.923Z,3.26
2022-12-18T06:56:09.908Z,3.21
2022-12-18T06:58:37.967Z,3.22
2022-12-18T07:01:08.957Z,3.33
2022-12-18T07:03:36.308Z,3.10
2022-12-18T07:06:04.164Z,2.99
2022-12-18T07:08:32.692Z,3.01
2022-12-18T07:11:00.084Z,2.98
2022-12-18T07:13:28.106Z,2.98
2022-12-18T07:15:55.176Z,2.98
2022-12-18T07:18:22.273Z,2.95
2022-12-18T07:20:49.307Z,2.83
2022-12-18T07:23:16.723Z,2.74
2022-12-18T07:25:43.983Z,2.71
2022-12-18T07:28:17.056Z,2.65
2022-12-18T07:30:44.450Z,2.55
2022-12-18T07:33:11.567Z,2.59
2022-12-18T07:35:39.223Z,2.70
2022-12-18T07:38:06.612Z,2.75
2022-12-18T07:40:34.211Z,2.73
2022-12-18T07:43:01.438Z,2.64
2022-12-18T07:45:28.434Z,2.64
2022-12-18T07:47:55.710Z,2.60
2022-12-18T07:50:23.085Z,2.60
2022-12-18T07:52:50.078Z,2.55
2022-12-18T07:55:17.294Z,2.49
2022-12-18T07:57:53.409Z,2.56
2022-12-18T08:00:23.848Z,2.59
2022-12-18T08:02:50.902Z,2.62
2022-12-18T08:05:18.607Z,2.65
2022-12-18T08:07:45.662Z,2.55
2022-12-18T08:10:13.064Z,2.51
2022-12-18T08:12:40.284Z,2.59
2022-12-18T08:15:08.603Z,2.62
2022-12-18T08:17:35.633Z,2.54
2022-12-18T08:20:02.951Z,2.72
2022-12-18T08:22:30.117Z,2.73
2022-12-18T08:24:57.439Z,2.80
2022-12-18T08:27:31.479Z,2.72
2022-12-18T08:29:59.755Z,2.79
2022-12-18T08:32:29.892Z,2.85
2022-12-18T08:34:57.649Z,2.82
2022-12-18T08:37:25.115Z,2.77
2022-12-18T08:39:52.270Z,2.65
2022-12-18T08:42:38.429Z,2.72
2022-12-18T08:45:06.010Z,2.75
2022-12-18T08:47:33.164Z,2.77
2022-12-18T08:50:00.216Z,2.83
2022-12-18T08:52:27.206Z,2.88
2022-12-18T08:54:54.225Z,2.84
2022-12-18T08:57:21.327Z,2.87
2022-12-18T08:59:49.735Z,2.91
2022-12-18T09:02:17.029Z,3.01
2022-12-18T09:04:46.761Z,2.95
2022-12-18T09:07:14.115Z,2.97
2022-12-18T09:09:41.253Z,3.03
2022-12-18T09:12:08.365Z,3.08
2022-12-18T09:14:35.347Z,3.11
2022-12-18T09:17:02.303Z,3.12
2022-12-18T09:19:29.450Z,3.23
2022-12-18T09:21:57.226Z,3.22
2022-12-18T09:24:24.336Z,3.21
2022-12-18T09:26:57.820Z,3.28
2022-12-18T09:29:25.797Z,3.39
2022-12-18T09:31:53.277Z,3.45
2022-12-18T09:34:22.216Z,3.40
2022-12-18T09:36:50.064Z,3.35
2022-12-18T09:39:17.398Z,3.40
2022-12-18T09:41:56.023Z,3.49
2022-12-18T09:44:47.461Z,3.52
2022-12-18T09:47:27.188Z,3.64
2022-12-18T09:49:57.946Z,3.71
2022-12-18T09:52:32.044Z,3.66
2022-12-18T09:55:25.818Z,3.69
2022-12-18T09:57:57.689Z,3.64
2022-12-18T10:00:26.425Z,3.57
2022-12-18T10:03:00.074Z,3.46
2022-12-18T10:05:43.418Z,3.44
2022-12-18T10:08:51.070Z,3.47
2022-12-18T10:12:00.977Z,3.60
2022-12-18T10:14:43.674Z,3.59
2022-12-18T10:17:49.051Z,3.58
2022-12-18T10:20:30.732Z,3.56
2022-12-18T10:23:26.196Z,3.77
2022-12-18T10:26:11.445Z,3.88
2022-12-18T10:28:41.957Z,3.90
2022-12-18T10:31:18.259Z,3.91
2022-12-18T10:33:45.774Z,4.07
2022-12-18T10:36:14.387Z,4.15
2022-12-18T10:38:41.841Z,4.28
2022-12-18T10:41:29.657Z,4.27
2022-12-18T10:44:23.658Z,4.42
2022-12-18T10:46:57.249Z,4.28
2022-12-18T10:49:28.106Z,4.26
2022-12-18T10:52:24.144Z,4.30
2022-12-18T10:55:02.829Z,4.25
2022-12-18T10:57:38.322Z,4.15
2022-12-18T11:00:29.283Z,4.06
2022-12-18T11:02:58.677Z,3.95
2022-12-18T11:05:32.025Z,3.96
2022-12-18T11:08:03.278Z,4.05
2022-12-18T11:10:34.782Z,4.15
2022-12-18T11:13:22.288Z,4.30
2022-12-18T11:15:50.321Z,4.26
2022-12-18T11:18:27.192Z,4.42
2022-12-18T11:20:59.049Z,4.34
2022-12-18T11:23:27.971Z,4.34
2022-12-18T11:25:58.829Z,4.38
2022-12-18T11:28:37.019Z,4.41
2022-12-18T11:31:23.445Z,4.41
2022-12-18T11:34:28.459Z,4.30
2022-12-18T11:36:59.493Z,4.38
2022-12-18T11:39:39.754Z,4.40
2022-12-18T11:42:50.348Z,4.48
2022-12-18T11:45:43.088Z,4.47
2022-12-18T11:48:28.759Z,4.40
2022-12-18T11:51:02.226Z,4.52
2022-12-18T11:53:31.510Z,4.53
2022-12-18T11:56:35.900Z,4.64
2022-12-18T11:59:58.471Z,4.65
2022-12-18T12:03:04.353Z,4.46
2022-12-18T12:06:15.802Z,4.47
2022-12-18T12:16:14.665Z,4.59
2022-12-18T12:19:07.550Z,4.46
2022-12-18T12:21:54.182Z,4.40
2022-12-18T12:39:39.912Z,4.38
2022-12-18T12:42:34.829Z,4.55
2022-12-18T12:45:07.888Z,4.58
2022-12-18T12:47:42.591Z,4.62
2022-12-18T12:50:17.188Z,4.59
2022-12-18T12:52:53.042Z,4.56
2022-12-18T12:55:29.135Z,4.50
2022-12-18T12:58:20.480Z,4.50
2022-12-18T13:01:02.723Z,4.44
2022-12-18T13:07:29.392Z,4.27
2022-12-18T13:10:26.888Z,4.24
2022-12-18T13:13:23.576Z,4.25
2022-12-18T13:16:19.882Z,4.23
2022-12-18T13:18:55.982Z,4.14
2022-12-18T13:21:32.204Z,4.19
2022-12-18T13:24:17.154Z,4.45
2022-12-18T13:26:44.253Z,4.37
2022-12-18T13:29:11.457Z,4.28
2022-12-18T13:32:01.921Z,4.55
2022-12-18T13:34:32.730Z,4.47
2022-12-18T13:37:19.890Z,4.42
2022-12-18T13:39:46.998Z,4.13
2022-12-18T13:42:57.717Z,4.32
2022-12-18T13:45:47.491Z,4.30
2022-12-18T13:48:24.864Z,4.20
2022-12-18T13:51:12.600Z,4.15
2022-12-18T13:53:45.629Z,4.03
2022-12-18T13:56:18.872Z,4.02
2022-12-18T13:58:46.379Z,4.16
2022-12-18T14:01:32.104Z,4.28
2022-12-18T14:04:33.835Z,4.23
2022-12-18T14:07:07.072Z,4.11
2022-12-18T14:09:38.884Z,4.14
2022-12-18T14:12:32.056Z,4.21
2022-12-18T14:15:01.538Z,4.11
2022-12-18T14:17:28.707Z,4.04
2022-12-18T14:19:57.180Z,4.06
2022-12-18T14:22:31.359Z,4.06
2022-12-18T14:25:19.951Z,4.08
2022-12-18T14:27:51.408Z,4.06
2022-12-18T14:30:41.604Z,3.89
2022-12-18T14:33:14.004Z,3.94
2022-12-18T14:36:03.800Z,3.98
2022-12-18T14:38:38.923Z,4.00
2022-12-18T14:41:22.464Z,3.91
2022-12-18T14:43:51.966Z,3.97
2022-12-18T14:46:41.685Z,4.09
2022-12-18T14:49:31.580Z,4.05
2022-12-18T14:52:03.345Z,4.02
2022-12-18T14:54:31.479Z,4.01
2022-12-18T14:57:06.935Z,3.98
2022-12-18T14:59:34.468Z,3.92
2022-12-18T15:02:23.181Z,3.85
2022-12-18T15:05:12.852Z,3.77
2022-12-18T15:07:45.924Z,3.71
2022-12-18T15:10:22.044Z,3.66
2022-12-18T15:13:22.875Z,3.65
2022-12-18T15:15:50.869Z,3.66
2022-12-18T15:18:23.046Z,3.63
2022-12-18T15:20:58.763Z,3.56
2022-12-18T15:23:50.421Z,3.50
2022-12-18T15:26:18.380Z,3.44
2022-12-18T15:28:53.148Z,3.40
2022-12-18T15:31:31.050Z,3.41
2022-12-18T15:34:11.973Z,3.44
2022-12-18T15:36:39.390Z,3.45
2022-12-18T15:39:07.178Z,3.48
2022-12-18T15:41:36.892Z,3.40
2022-12-18T15:44:22.605Z,3.46
2022-12-18T15:46:49.977Z,3.39
2022-12-18T15:49:17.151Z,3.43
2022-12-18T15:51:45.004Z,3.47
2022-12-18T15:54:17.475Z,3.48
2022-12-18T15:57:02.742Z,3.44
2022-12-18T15:59:29.831Z,3.36
2022-12-18T16:02:00.528Z,3.33
2022-12-18T16:04:27.915Z,3.33
2022-12-18T16:09:43.222Z,3.32
2022-12-18T16:12:20.627Z,3.40
2022-12-18T16:14:48.605Z,3.34
2022-12-18T16:17:16.198Z,3.30
2022-12-18T16:19:43.446Z,3.31
2022-12-18T16:22:23.360Z,3.32
2022-12-18T16:24:51.955Z,3.37
2022-12-18T16:27:20.128Z,3.32
2022-12-18T16:29:47.364Z,3.36
2022-12-18T16:32:18.721Z,3.35
2022-12-18T16:34:47.447Z,3.29
2022-12-18T16:37:16.116Z,3.28
2022-12-18T16:39:43.672Z,3.27
2022-12-18T16:42:20.124Z,3.27
2022-12-18T16:44:48.755Z,3.35
2022-12-18T16:47:17.492Z,3.38
2022-12-18T16:49:51.915Z,3.46
2022-12-18T16:52:20.963Z,3.33
2022-12-18T16:54:48.071Z,3.24
2022-12-18T16:57:18.461Z,3.24
2022-12-18T16:59:45.769Z,3.18
2022-12-18T17:02:17.150Z,3.12
2022-12-18T17:04:47.031Z,3.13
2022-12-18T17:07:15.288Z,3.16
2022-12-18T17:09:43.010Z,3.07
2022-12-18T17:12:10.742Z,2.95
2022-12-18T17:14:37.979Z,2.83
2022-12-18T17:17:20.982Z,3.00
2022-12-18T17:19:49.372Z,2.79
2022-12-18T17:22:17.491Z,2.90
2022-12-18T17:24:44.673Z,2.87
2022-12-18T17:27:11.829Z,2.73
2022-12-18T17:29:47.270Z,2.79
2022-12-18T17:32:15.436Z,2.83
2022-12-18T17:34:42.489Z,2.78
2022-12-18T17:37:09.853Z,2.77
2022-12-18T17:39:37.014Z,2.80
2022-12-18T17:42:05.253Z,2.82
2022-12-18T17:44:34.463Z,2.72
2022-12-18T17:47:01.754Z,2.85
2022-12-18T17:49:29.078Z,2.80
2022-12-18T17:51:56.392Z,2.79
2022-12-18T17:54:23.374Z,2.77
2022-12-18T17:56:50.437Z,2.79
2022-12-18T17:59:17.479Z,2.80
2022-12-18T18:01:46.107Z,2.70
2022-12-18T18:04:17.611Z,2.73
2022-12-18T18:06:44.535Z,2.81
2022-12-18T18:09:15.940Z,2.85
2022-12-18T18:12:04.429Z,2.86
2022-12-18T18:14:31.914Z,2.94
2022-12-18T18:17:03.898Z,2.98
2022-12-18T18:19:32.623Z,2.88
2022-12-18T18:21:59.623Z,2.67
2022-12-18T18:24:26.804Z,2.70
2022-12-18T18:26:54.366Z,2.68
2022-12-18T18:29:25.823Z,2.56
2022-12-18T18:31:55.527Z,2.40
2022-12-18T18:34:28.474Z,2.16
2022-12-18T18:36:55.475Z,2.08
2022-12-18T18:39:22.637Z,1.91
2022-12-18T18:41:50.032Z,1.75
2022-12-18T18:44:18.210Z,1.63
2022-12-18T18:46:45.554Z,1.55
2022-12-18T18:49:13.982Z,1.46
2022-12-18T18:51:41.845Z,1.35
2022-12-18T18:54:09.424Z,1.32
2022-12-18T18:59:31.233Z,1.32
2022-12-18T19:01:59.507Z,1.39
2022-12-18T19:04:29.123Z,1.35
2022-12-18T19:06:56.822Z,1.38
2022-12-18T19:09:24.326Z,1.35
2022-12-18T19:12:11.484Z,1.35
2022-12-18T19:14:38.777Z,1.33
2022-12-18T19:17:05.886Z,1.40
2022-12-18T19:19:33.787Z,1.43
2022-12-18T19:22:02.888Z,1.43
2022-12-18T19:24:30.991Z,1.50
2022-12-18T19:26:58.324Z,1.46
2022-12-18T19:29:25.722Z,1.46
2022-12-18T19:31:53.880Z,1.37
2022-12-18T19:34:21.315Z,1.40
2022-12-18T19:36:48.418Z,1.30
2022-12-18T19:39:17.607Z,1.38
2022-12-18T19:41:45.076Z,1.46
2022-12-18T19:44:16.448Z,1.46
2022-12-18T19:46:45.690Z,1.41
2022-12-18T19:49:18.219Z,1.45
2022-12-18T19:51:45.850Z,1.33
2022-12-18T19:54:16.643Z,1.28
2022-12-18T19:56:45.226Z,1.37
2022-12-18T19:59:13.028Z,1.42
2022-12-18T20:01:40.871Z,1.36
2022-12-18T20:04:08.573Z,1.31
2022-12-18T20:06:47.307Z,1.25
2022-12-18T20:09:14.420Z,1.25
2022-12-18T20:11:42.550Z,1.20
2022-12-18T20:14:14.179Z,1.17
2022-12-18T20:16:44.154Z,1.11
2022-12-18T20:19:12.612Z,1.05
2022-12-18T20:21:40.050Z,0.92
2022-12-18T20:24:08.887Z,0.76
2022-12-18T20:26:36.187Z,0.66
2022-12-18T20:29:03.413Z,0.66
2022-12-18T20:31:30.600Z,0.55
2022-12-18T20:34:00.907Z,0.50
2022-12-18T20:36:31.724Z,0.43
2022-12-18T20:39:01.679Z,0.33
2022-12-18T20:41:37.898Z,0.32
2022-12-18T20:44:22.489Z,0.23
2022-12-18T20:47:01.114Z,0.25
2022-12-18T20:49:32.136Z,0.36
2022-12-18T20:51:59.633Z,0.30
2022-12-18T20:54:29.955Z,0.42
2022-12-18T20:56:58.064Z,0.37
2022-12-18T20:59:25.930Z,0.34
2022-12-18T21:01:53.515Z,0.33
2022-12-18T21:04:21.840Z,0.19
2022-12-18T21:06:54.185Z,0.17
2022-12-18T21:09:27.904Z,0.27
2022-12-18T21:12:20.509Z,0.19
2022-12-18T21:14:49.539Z,0.23
2022-12-18T21:17:17.275Z,0.19
2022-12-18T21:19:45.696Z,0.30
2022-12-18T21:22:14.066Z,0.33
2022-12-18T21:24:40.948Z,0.32
2022-12-18T21:27:07.926Z,0.28
2022-12-18T21:29:35.686Z,0.21
2022-12-18T21:32:03.881Z,0.17
2022-12-18T21:34:32.307Z,0.14
2022-12-18T21:37:00.627Z,0.13
2022-12-18T21:39:29.397Z,0.13
2022-12-18T21:42:15.755Z,0.12
2022-12-18T21:44:43.898Z,0.05
2022-12-18T21:47:22.112Z,0.10
2022-12-18T21:49:51.673Z,-0.02
2022-12-18T21:52:19.450Z,0.06
2022-12-18T21:54:47.111Z,0.08
2022-12-18T21:57:14.039Z,0.06
2022-12-18T21:59:43.579Z,-0.06
2022-12-18T22:02:16.745Z,-0.16
2022-12-18T22:04:45.499Z,-0.17
2022-12-18T22:07:16.011Z,-0.11
2022-12-18T22:09:44.201Z,-0.11
2022-12-18T22:12:13.585Z,-0.07
2022-12-18T22:14:40.755Z,-0.14
2022-12-18T22:17:08.034Z,-0.17
2022-12-18T22:19:41.057Z,-0.26
2022-12-18T22:22:10.061Z,-0.23
2022-12-18T22:24:37.189Z,-0.20
2022-12-18T22:27:04.354Z,-0.17
2022-12-18T22:29:51.306Z,-0.07
2022-12-18T22:32:31.004Z,-0.01
2022-12-18T22:35:10.427Z,-0.02
2022-12-18T22:37:42.062Z,-0.02
2022-12-18T22:40:23.953Z,-0.01
2022-12-18T22:42:52.594Z,0.26
2022-12-18T22:45:24.169Z,0.30
2022-12-18T22:47:51.645Z,0.25
2022-12-18T22:50:20.319Z,0.42
2022-12-18T22:52:48.182Z,0.37
2022-12-18T22:55:15.773Z,0.34
2022-12-18T22:57:48.659Z,0.56
2022-12-18T23:00:16.889Z,0.33
2022-12-18T23:02:51.329Z,0.49
2022-12-18T23:05:22.626Z,0.43
2022-12-18T23:07:50.689Z,0.23
2022-12-18T23:10:18.583Z,0.29
2022-12-18T23:12:46.198Z,0.22
2022-12-18T23:15:13.833Z,0.29
2022-12-18T23:17:43.971Z,0.32
2022-12-18T23:20:11.609Z,0.44
2022-12-18T23:22:38.620Z,0.33
2022-12-18T23:25:06.179Z,0.27
2022-12-18T23:27:33.174Z,0.15
2022-12-18T23:30:01.361Z,0.28
2022-12-18T23:32:29.329Z,0.41
2022-12-18T23:34:56.363Z,0.39
2022-12-18T23:37:56.814Z,0.50
2022-12-18T23:40:11.651Z,0.55
2022-12-18T23:42:39.137Z,0.48
2022-12-18T23:45:16.604Z,0.52
2022-12-18T23:47:44.933Z,0.57
2022-12-18T23:50:14.180Z,0.49
2022-12-18T23:52:41.361Z,0.36
2022-12-18T23:55:09.854Z,0.55
2022-12-18T23:57:36.957Z,0.50
